Terminal Aerodrome Forecast
Issued by NWS Grand Junction, CO

Home | Current Version | Previous Version | Text Only | Print | Product List | Glossary On
Versions: 1 2 3 4 5 6 7 8 9 10 11 12
000
FTUS45 KGJT 311120
TAFGJT
TAF
KGJT 311120Z 3112/0112 11007KT P6SM FEW250
     FM311600 14005KT P6SM SCT250
     FM312000 24008KT P6SM FEW150 BKN250
     FM010200 08003KT P6SM BKN150
     FM010500 12012KT P6SM BKN150=

USA.gov is the U.S. government's official web portal to all federal, state and local government web resources and services.